createdAt,value
2018-09-25T00:00:29.278Z,5.50
2018-09-25T00:03:03.603Z,5.50
2018-09-25T00:05:37.956Z,5.40
2018-09-25T00:08:12.164Z,5.40
2018-09-25T00:10:46.494Z,5.50
2018-09-25T00:13:20.796Z,5.50
2018-09-25T00:15:55.077Z,5.60
2018-09-25T00:18:29.432Z,5.60
2018-09-25T00:21:03.778Z,5.60
2018-09-25T00:23:38.083Z,5.60
2018-09-25T00:26:12.464Z,5.60
2018-09-25T00:28:46.647Z,5.70
2018-09-25T00:31:21.052Z,5.60
2018-09-25T00:33:55.274Z,5.60
2018-09-25T00:36:29.654Z,5.60
2018-09-25T00:39:03.886Z,5.60
2018-09-25T00:41:38.217Z,5.60
2018-09-25T00:44:12.432Z,5.60
2018-09-25T00:46:46.824Z,5.60
2018-09-25T00:49:21.075Z,5.60
2018-09-25T00:51:55.303Z,5.60
2018-09-25T00:54:29.619Z,5.50
2018-09-25T00:57:03.987Z,5.40
2018-09-25T00:59:38.126Z,5.50
2018-09-25T01:02:12.319Z,5.50
2018-09-25T01:04:46.678Z,5.50
2018-09-25T01:07:21.100Z,5.50
2018-09-25T01:09:55.479Z,5.50
2018-09-25T01:12:29.716Z,5.40
2018-09-25T01:15:04.060Z,5.40
2018-09-25T01:17:38.284Z,5.40
2018-09-25T01:20:12.777Z,5.40
2018-09-25T01:22:47.187Z,5.40
2018-09-25T01:25:21.561Z,5.40
2018-09-25T01:27:55.976Z,5.40
2018-09-25T01:30:30.407Z,5.40
2018-09-25T01:33:05.210Z,5.30
2018-09-25T01:35:39.669Z,5.30
2018-09-25T01:38:14.082Z,5.30
2018-09-25T01:40:48.366Z,5.20
2018-09-25T01:43:22.679Z,5.10
2018-09-25T01:45:57.014Z,5.10
2018-09-25T01:48:31.345Z,5.00
2018-09-25T01:51:05.728Z,5.00
2018-09-25T01:53:40.387Z,5.10
2018-09-25T01:56:14.843Z,5.00
2018-09-25T01:58:49.143Z,4.90
2018-09-25T02:01:23.466Z,4.90
2018-09-25T02:03:57.757Z,4.80
2018-09-25T02:06:31.968Z,4.80
2018-09-25T02:09:06.349Z,4.70
2018-09-25T02:11:41.879Z,4.80
2018-09-25T02:14:16.268Z,4.70
2018-09-25T02:16:50.685Z,4.70
2018-09-25T02:19:24.921Z,4.60
2018-09-25T02:21:59.223Z,4.60
2018-09-25T02:24:33.588Z,4.60
2018-09-25T02:27:07.971Z,4.50
2018-09-25T02:29:42.259Z,4.60
2018-09-25T02:32:16.587Z,4.70
2018-09-25T02:34:50.931Z,4.60
2018-09-25T02:37:25.361Z,4.50
2018-09-25T02:39:59.544Z,4.50
2018-09-25T02:42:33.864Z,4.40
2018-09-25T02:45:08.014Z,4.40
2018-09-25T02:47:42.474Z,4.40
2018-09-25T02:50:16.821Z,4.40
2018-09-25T02:52:51.242Z,4.50
2018-09-25T02:55:25.688Z,4.60
2018-09-25T02:58:00.056Z,4.60
2018-09-25T03:00:34.232Z,4.60
2018-09-25T03:03:08.454Z,4.60
2018-09-25T03:05:42.658Z,4.50
2018-09-25T03:08:17.015Z,4.60
2018-09-25T03:10:51.373Z,4.60
2018-09-25T03:13:25.789Z,4.60
2018-09-25T03:16:00.194Z,4.70
2018-09-25T03:18:34.633Z,4.60
2018-09-25T03:21:08.960Z,4.50
2018-09-25T03:23:43.165Z,4.50
2018-09-25T03:26:17.570Z,4.40
2018-09-25T03:28:52.568Z,4.50
2018-09-25T03:31:26.865Z,4.50
2018-09-25T03:34:01.206Z,4.40
2018-09-25T03:36:35.444Z,4.30
2018-09-25T03:39:11.347Z,4.30
2018-09-25T03:41:45.614Z,4.30
2018-09-25T03:44:19.838Z,4.30
2018-09-25T03:46:54.455Z,4.30
2018-09-25T03:49:28.832Z,4.20
2018-09-25T03:52:03.017Z,4.20
2018-09-25T03:54:42.855Z,4.20
2018-09-25T03:57:18.472Z,4.20
2018-09-25T03:59:54.033Z,4.20
2018-09-25T04:02:29.652Z,4.10
2018-09-25T04:05:05.027Z,4.10
2018-09-25T04:07:40.463Z,4.10
2018-09-25T04:10:16.277Z,4.10
2018-09-25T04:12:52.106Z,4.00
2018-09-25T04:15:27.956Z,4.00
2018-09-25T04:18:02.731Z,4.00
2018-09-25T04:20:37.358Z,3.90
2018-09-25T04:23:11.989Z,3.90
2018-09-25T04:25:46.628Z,4.00
2018-09-25T04:28:22.389Z,4.10
2018-09-25T04:30:59.409Z,4.20
2018-09-25T04:33:33.953Z,4.10
2018-09-25T04:36:08.521Z,4.10
2018-09-25T04:38:42.887Z,4.00
2018-09-25T04:41:17.152Z,3.90
2018-09-25T04:43:51.415Z,3.90
2018-09-25T04:46:26.298Z,4.00
2018-09-25T04:49:00.680Z,4.00
2018-09-25T04:51:35.242Z,4.00
2018-09-25T04:54:09.540Z,3.90
2018-09-25T04:56:43.842Z,3.90
2018-09-25T04:59:18.160Z,3.90
2018-09-25T05:01:52.848Z,3.90
2018-09-25T05:04:27.152Z,3.90
2018-09-25T05:07:01.448Z,3.90
2018-09-25T05:09:36.454Z,4.00
2018-09-25T05:12:10.882Z,4.00
2018-09-25T05:14:45.329Z,4.00
2018-09-25T05:17:20.986Z,3.90
2018-09-25T05:19:55.299Z,3.90
2018-09-25T05:22:29.952Z,3.90
2018-09-25T05:25:04.508Z,3.90
2018-09-25T05:27:39.043Z,3.80
2018-09-25T05:30:13.411Z,3.80
2018-09-25T05:32:47.721Z,3.80
2018-09-25T05:35:22.310Z,3.80
2018-09-25T05:37:56.962Z,3.90
2018-09-25T05:40:31.335Z,3.90
2018-09-25T05:43:05.856Z,4.00
2018-09-25T05:45:40.241Z,4.00
2018-09-25T05:48:14.803Z,4.00
2018-09-25T05:50:49.092Z,4.00
2018-09-25T05:53:24.150Z,4.00
2018-09-25T05:55:58.447Z,4.00
2018-09-25T05:58:32.798Z,4.10
2018-09-25T06:01:07.168Z,4.20
2018-09-25T06:03:41.539Z,4.20
2018-09-25T06:06:16.007Z,4.40
2018-09-25T06:08:50.467Z,4.70
2018-09-25T06:11:24.951Z,4.80
2018-09-25T06:13:59.349Z,5.00
2018-09-25T06:16:33.855Z,5.10
2018-09-25T06:19:08.263Z,5.20
2018-09-25T06:21:42.724Z,5.40
2018-09-25T06:24:17.165Z,5.60
2018-09-25T06:26:51.396Z,6.00
2018-09-25T06:29:25.683Z,6.40
2018-09-25T06:32:00.039Z,6.50
2018-09-25T06:34:34.930Z,6.50
2018-09-25T06:37:09.501Z,6.60
2018-09-25T06:39:44.004Z,6.50
2018-09-25T06:42:18.496Z,6.50
2018-09-25T06:44:52.795Z,6.70
2018-09-25T06:47:27.229Z,6.80
2018-09-25T06:50:01.612Z,6.90
2018-09-25T06:52:35.958Z,7.10
2018-09-25T06:55:10.841Z,7.40
2018-09-25T06:57:45.035Z,7.70
2018-09-25T07:00:19.376Z,8.00
2018-09-25T07:02:53.712Z,8.40
2018-09-25T07:05:28.189Z,8.90
2018-09-25T07:08:02.531Z,9.10
2018-09-25T07:10:36.994Z,9.30
2018-09-25T07:13:11.152Z,9.40
2018-09-25T07:15:46.078Z,9.60
2018-09-25T07:18:20.363Z,9.90
2018-09-25T07:20:54.615Z,10.10
2018-09-25T07:23:29.032Z,10.20
2018-09-25T07:26:03.278Z,10.30
2018-09-25T07:28:37.659Z,10.50
2018-09-25T07:31:12.121Z,10.50
2018-09-25T07:33:46.329Z,10.50
2018-09-25T07:36:20.588Z,10.50
2018-09-25T07:38:54.805Z,10.40
2018-09-25T07:41:29.589Z,10.50
2018-09-25T07:44:04.001Z,10.80
2018-09-25T07:46:38.415Z,10.90
2018-09-25T07:49:12.943Z,10.90
2018-09-25T07:51:47.177Z,11.20
2018-09-25T07:54:21.426Z,11.00
2018-09-25T07:56:56.464Z,10.90
2018-09-25T07:59:31.975Z,10.90
2018-09-25T08:02:06.338Z,11.10
2018-09-25T08:04:40.638Z,11.20
2018-09-25T08:07:14.884Z,11.30
2018-09-25T08:09:49.127Z,11.30
2018-09-25T08:12:23.478Z,11.30
2018-09-25T08:14:57.767Z,11.20
2018-09-25T08:17:32.654Z,11.20
2018-09-25T08:20:07.118Z,11.20
2018-09-25T08:22:41.466Z,11.40
2018-09-25T08:25:15.885Z,11.10
2018-09-25T08:27:50.210Z,10.70
2018-09-25T08:30:24.479Z,10.20
2018-09-25T08:32:58.824Z,10.00
2018-09-25T08:35:33.141Z,10.10
2018-09-25T08:38:07.452Z,10.60
2018-09-25T08:40:41.616Z,11.00
2018-09-25T08:43:15.990Z,11.30
2018-09-25T08:45:50.292Z,11.50
2018-09-25T08:48:24.632Z,11.60
2018-09-25T08:50:58.971Z,11.70
2018-09-25T08:53:33.303Z,11.40
2018-09-25T08:56:07.675Z,11.20
2018-09-25T08:58:42.687Z,11.00
2018-09-25T09:01:17.112Z,11.00
2018-09-25T09:03:51.338Z,11.10
2018-09-25T09:06:25.754Z,11.20
2018-09-25T09:09:00.052Z,11.10
2018-09-25T09:11:34.470Z,11.10
2018-09-25T09:14:08.806Z,11.10
2018-09-25T09:16:43.194Z,11.00
2018-09-25T09:19:17.432Z,10.80
2018-09-25T09:21:51.771Z,10.60
2018-09-25T09:24:26.020Z,10.60
2018-09-25T09:27:00.318Z,10.50
2018-09-25T09:29:34.907Z,10.40
2018-09-25T09:32:09.343Z,10.30
2018-09-25T09:34:43.647Z,10.30
2018-09-25T09:37:18.170Z,10.30
2018-09-25T09:39:52.640Z,10.30
2018-09-25T09:42:27.003Z,10.40
2018-09-25T09:45:01.279Z,10.50
2018-09-25T09:47:35.700Z,10.40
2018-09-25T09:50:10.060Z,10.10
2018-09-25T09:52:44.397Z,10.20
2018-09-25T09:55:18.667Z,10.40
2018-09-25T09:57:53.087Z,10.60
2018-09-25T10:00:27.470Z,10.60
2018-09-25T10:03:01.819Z,10.80
2018-09-25T10:05:38.865Z,10.60
2018-09-25T10:08:13.369Z,10.60
2018-09-25T10:10:47.674Z,10.70
2018-09-25T10:13:21.956Z,10.90
2018-09-25T10:15:56.311Z,11.00
2018-09-25T10:18:31.098Z,11.10
2018-09-25T10:21:05.392Z,11.30
2018-09-25T10:23:39.835Z,11.60
2018-09-25T10:26:14.126Z,11.50
2018-09-25T10:28:48.464Z,11.70
2018-09-25T10:31:22.745Z,11.70
2018-09-25T10:33:57.078Z,11.80
2018-09-25T10:36:31.986Z,11.90
2018-09-25T10:39:14.559Z,12.10
2018-09-25T10:41:49.194Z,12.40
2018-09-25T10:44:23.601Z,12.30
2018-09-25T10:46:57.863Z,12.10
2018-09-25T10:49:32.369Z,11.80
2018-09-25T10:52:06.600Z,11.70
2018-09-25T10:54:41.117Z,11.50
2018-09-25T10:57:15.467Z,11.40
2018-09-25T10:59:50.951Z,11.40
2018-09-25T11:02:25.474Z,11.40
2018-09-25T11:04:59.810Z,11.30
2018-09-25T11:07:34.424Z,11.10
2018-09-25T11:10:08.993Z,10.70
2018-09-25T11:12:43.399Z,10.50
2018-09-25T11:15:17.614Z,10.30
2018-09-25T11:17:51.821Z,10.20
2018-09-25T11:20:26.467Z,10.10
2018-09-25T11:23:00.790Z,10.10
2018-09-25T11:25:35.358Z,10.20
2018-09-25T11:28:10.077Z,10.40
2018-09-25T11:30:44.451Z,10.60
2018-09-25T11:33:18.675Z,10.80
2018-09-25T11:35:53.096Z,11.00
2018-09-25T11:38:27.422Z,11.30
2018-09-25T11:41:01.772Z,11.40
2018-09-25T11:43:36.575Z,11.50
2018-09-25T11:46:11.139Z,11.40
2018-09-25T11:48:45.443Z,11.30
2018-09-25T11:51:19.755Z,11.10
2018-09-25T11:53:54.183Z,11.00
2018-09-25T11:56:28.598Z,11.00
2018-09-25T11:59:02.832Z,11.20
2018-09-25T12:01:38.535Z,11.40
2018-09-25T12:04:13.086Z,11.40
2018-09-25T12:06:47.424Z,11.50
2018-09-25T12:09:21.815Z,11.50
2018-09-25T12:11:57.007Z,11.50
2018-09-25T12:14:31.259Z,11.40
2018-09-25T12:17:05.697Z,11.40
2018-09-25T12:19:40.096Z,11.40
2018-09-25T12:22:14.364Z,11.50
2018-09-25T12:24:48.630Z,11.60
2018-09-25T12:27:23.093Z,11.60
2018-09-25T12:29:57.508Z,11.70
2018-09-25T12:32:32.425Z,11.70
2018-09-25T12:35:06.775Z,11.60
2018-09-25T12:37:41.127Z,11.70
2018-09-25T12:40:15.525Z,11.60
2018-09-25T12:42:49.777Z,11.80
2018-09-25T12:45:24.070Z,12.10
2018-09-25T12:47:58.480Z,12.70
2018-09-25T12:50:32.792Z,12.90
2018-09-25T12:53:07.776Z,12.90
2018-09-25T12:55:42.092Z,12.70
2018-09-25T12:58:16.552Z,12.30
2018-09-25T13:00:50.951Z,11.80
2018-09-25T13:03:25.296Z,11.50
2018-09-25T13:05:59.556Z,11.20
2018-09-25T13:08:34.086Z,11.10
2018-09-25T13:11:08.304Z,11.20
2018-09-25T13:13:42.979Z,11.50
2018-09-25T13:16:17.227Z,12.00
2018-09-25T13:18:51.541Z,12.20
2018-09-25T13:21:25.911Z,12.10
2018-09-25T13:24:00.311Z,12.00
2018-09-25T13:26:34.553Z,11.90
2018-09-25T13:29:08.843Z,12.00
2018-09-25T13:31:43.061Z,11.90
2018-09-25T13:34:17.436Z,11.90
2018-09-25T13:36:51.685Z,11.90
2018-09-25T13:39:25.921Z,11.80
2018-09-25T13:42:00.249Z,11.80
2018-09-25T13:44:34.453Z,11.70
2018-09-25T13:47:08.658Z,11.50
2018-09-25T13:49:43.099Z,11.30
2018-09-25T13:52:17.427Z,11.30
2018-09-25T13:54:51.864Z,11.40
2018-09-25T13:57:26.118Z,11.40
2018-09-25T14:00:00.594Z,11.40
2018-09-25T14:02:34.991Z,11.40
2018-09-25T14:05:09.349Z,11.50
2018-09-25T14:07:43.508Z,11.50
2018-09-25T14:10:17.884Z,11.60
2018-09-25T14:12:52.259Z,11.70
2018-09-25T14:15:26.492Z,11.80
2018-09-25T14:18:00.782Z,11.80
2018-09-25T14:20:35.221Z,11.80
2018-09-25T14:23:09.685Z,11.60
2018-09-25T14:25:44.040Z,11.50
2018-09-25T14:28:18.371Z,11.40
2018-09-25T14:30:52.933Z,11.40
2018-09-25T14:33:27.186Z,11.30
2018-09-25T14:36:01.897Z,11.30
2018-09-25T14:38:36.270Z,11.20
2018-09-25T14:41:10.912Z,11.10
2018-09-25T14:43:45.516Z,11.10
2018-09-25T14:46:19.762Z,11.00
2018-09-25T14:48:54.498Z,10.90
2018-09-25T14:51:28.903Z,10.90
2018-09-25T14:54:03.341Z,10.90
2018-09-25T14:56:37.691Z,10.80
2018-09-25T14:59:12.287Z,10.80
2018-09-25T15:01:46.815Z,10.70
2018-09-25T15:04:21.132Z,10.70
2018-09-25T15:06:55.539Z,10.70
2018-09-25T15:09:29.728Z,10.70
2018-09-25T15:12:04.512Z,10.60
2018-09-25T15:14:38.728Z,10.60
2018-09-25T15:17:13.443Z,10.60
2018-09-25T15:19:47.620Z,10.60
2018-09-25T15:22:22.358Z,10.60
2018-09-25T15:24:56.283Z,10.60
2018-09-25T15:27:30.693Z,10.70
2018-09-25T15:30:04.902Z,10.60
2018-09-25T15:32:39.576Z,10.60
2018-09-25T15:35:14.238Z,10.60
2018-09-25T15:37:48.661Z,10.60
2018-09-25T15:40:23.050Z,10.50
2018-09-25T15:42:58.022Z,10.50
2018-09-25T15:45:32.597Z,10.40
2018-09-25T15:48:07.151Z,10.40
2018-09-25T15:50:41.465Z,10.40
2018-09-25T15:53:16.461Z,10.30
2018-09-25T15:55:50.667Z,10.30
2018-09-25T15:58:25.099Z,10.20
2018-09-25T16:01:00.631Z,10.20
2018-09-25T16:03:35.002Z,10.10
2018-09-25T16:06:09.679Z,10.10
2018-09-25T16:08:44.174Z,10.10
2018-09-25T16:11:20.551Z,10.00
2018-09-25T16:13:54.904Z,9.90
2018-09-25T16:16:29.607Z,9.90
2018-09-25T16:19:04.236Z,9.90
2018-09-25T16:21:38.592Z,9.90
2018-09-25T16:24:12.927Z,9.80
2018-09-25T16:26:47.230Z,9.70
2018-09-25T16:29:21.546Z,9.70
2018-09-25T16:31:56.503Z,9.60
2018-09-25T16:34:31.578Z,9.60
2018-09-25T16:37:06.075Z,9.50
2018-09-25T16:39:40.397Z,9.40
2018-09-25T16:42:14.732Z,9.30
2018-09-25T16:44:49.278Z,9.10
2018-09-25T16:47:23.553Z,9.00
2018-09-25T16:49:58.315Z,8.90
2018-09-25T16:52:32.785Z,8.80
2018-09-25T16:55:07.147Z,8.70
2018-09-25T16:57:41.343Z,8.70
2018-09-25T17:00:16.522Z,8.70
2018-09-25T17:02:51.028Z,8.50
2018-09-25T17:05:25.486Z,8.40
2018-09-25T17:07:59.764Z,8.30
2018-09-25T17:10:34.150Z,8.20
2018-09-25T17:13:08.802Z,8.10
2018-09-25T17:15:43.280Z,8.00
2018-09-25T17:18:17.580Z,7.90
2018-09-25T17:20:52.531Z,7.80
2018-09-25T17:23:31.922Z,7.70
2018-09-25T17:26:06.452Z,7.50
2018-09-25T17:28:40.939Z,7.40
2018-09-25T17:31:15.326Z,7.30
2018-09-25T17:33:49.908Z,7.20
2018-09-25T17:36:24.110Z,7.20
2018-09-25T17:38:58.545Z,7.00
2018-09-25T17:41:32.908Z,7.00
2018-09-25T17:44:07.230Z,6.90
2018-09-25T17:46:41.519Z,6.90
2018-09-25T17:49:15.752Z,6.80
2018-09-25T17:51:50.408Z,6.70
2018-09-25T17:54:25.080Z,6.60
2018-09-25T17:56:59.680Z,6.60
2018-09-25T17:59:34.536Z,6.50
2018-09-25T18:02:09.121Z,6.40
2018-09-25T18:04:44.116Z,6.30
2018-09-25T18:07:18.799Z,6.20
2018-09-25T18:09:53.771Z,6.10
2018-09-25T18:12:28.691Z,6.10
2018-09-25T18:15:03.200Z,6.00
2018-09-25T18:17:37.645Z,5.90
2018-09-25T18:20:12.799Z,5.90
2018-09-25T18:22:47.251Z,5.90
2018-09-25T18:25:21.921Z,5.80
2018-09-25T18:27:56.237Z,5.70
2018-09-25T18:30:30.950Z,5.70
2018-09-25T18:33:05.391Z,5.70
2018-09-25T18:35:39.932Z,5.60
2018-09-25T18:38:14.506Z,5.60
2018-09-25T18:40:48.868Z,5.60
2018-09-25T18:43:23.680Z,5.60
2018-09-25T18:45:58.022Z,5.70
2018-09-25T18:48:32.523Z,5.70
2018-09-25T18:51:06.891Z,5.70
2018-09-25T18:53:41.645Z,5.70
2018-09-25T18:56:15.888Z,5.70
2018-09-25T18:58:50.576Z,5.70
2018-09-25T19:01:25.034Z,5.70
2018-09-25T19:03:59.373Z,5.70
2018-09-25T19:06:34.007Z,5.70
2018-09-25T19:09:08.444Z,5.70
2018-09-25T19:11:43.264Z,5.60
2018-09-25T19:14:18.079Z,5.70
2018-09-25T19:16:53.004Z,5.60
2018-09-25T19:19:27.437Z,5.60
2018-09-25T19:22:01.993Z,5.60
2018-09-25T19:24:36.552Z,5.50
2018-09-25T19:27:11.584Z,5.50
2018-09-25T19:29:46.027Z,5.50
2018-09-25T19:32:20.491Z,5.40
2018-09-25T19:34:55.792Z,5.40
2018-09-25T19:37:30.570Z,5.50
2018-09-25T19:40:05.284Z,5.50
2018-09-25T19:42:39.821Z,5.60
2018-09-25T19:45:14.433Z,5.60
2018-09-25T19:47:48.816Z,5.60
2018-09-25T19:50:23.489Z,5.50
2018-09-25T19:52:57.961Z,5.60
2018-09-25T19:55:32.434Z,5.60
2018-09-25T19:58:06.950Z,5.50
2018-09-25T20:00:41.638Z,5.50
2018-09-25T20:03:16.228Z,5.40
2018-09-25T20:05:50.460Z,5.40
2018-09-25T20:08:25.296Z,5.30
2018-09-25T20:10:59.564Z,5.20
2018-09-25T20:13:35.265Z,5.10
2018-09-25T20:16:10.261Z,5.00
2018-09-25T20:18:44.651Z,4.90
2018-09-25T20:21:19.561Z,4.80
2018-09-25T20:23:54.066Z,4.80
2018-09-25T20:26:28.578Z,4.80
2018-09-25T20:29:02.963Z,4.80
2018-09-25T20:31:37.645Z,4.70
2018-09-25T20:34:12.158Z,4.70
2018-09-25T20:36:46.492Z,4.70
2018-09-25T20:39:20.859Z,4.70
2018-09-25T20:41:55.162Z,4.60
2018-09-25T20:44:29.598Z,4.60
2018-09-25T20:47:03.963Z,4.60
2018-09-25T20:49:39.511Z,4.60
2018-09-25T20:52:14.603Z,4.60
2018-09-25T20:54:49.736Z,4.50
2018-09-25T20:57:24.176Z,4.50
2018-09-25T20:59:59.040Z,4.50
2018-09-25T21:02:34.837Z,4.50
2018-09-25T21:05:10.917Z,4.50
2018-09-25T21:07:46.113Z,4.50
2018-09-25T21:10:22.177Z,4.50
2018-09-25T21:12:57.294Z,4.40
2018-09-25T21:15:31.962Z,4.40
2018-09-25T21:18:07.158Z,4.40
2018-09-25T21:20:42.135Z,4.40
2018-09-25T21:23:16.930Z,4.30
2018-09-25T21:25:51.675Z,4.30
2018-09-25T21:28:26.720Z,4.30
2018-09-25T21:31:01.555Z,4.20
2018-09-25T21:33:36.013Z,4.20
2018-09-25T21:36:11.019Z,4.10
2018-09-25T21:38:45.930Z,4.10
2018-09-25T21:41:20.256Z,4.10
2018-09-25T21:43:55.028Z,4.10
2018-09-25T21:46:29.304Z,4.00
2018-09-25T21:49:03.468Z,4.00
2018-09-25T21:51:38.026Z,3.90
2018-09-25T21:54:12.638Z,3.90
2018-09-25T21:56:47.135Z,3.80
2018-09-25T21:59:21.346Z,3.70
2018-09-25T22:01:55.777Z,3.70
2018-09-25T22:04:30.609Z,3.70
2018-09-25T22:07:04.996Z,3.60
2018-09-25T22:09:39.190Z,3.70
2018-09-25T22:12:13.694Z,3.70
2018-09-25T22:14:48.071Z,3.70
2018-09-25T22:17:22.523Z,3.70
2018-09-25T22:19:56.746Z,3.70
2018-09-25T22:22:31.479Z,3.80
2018-09-25T22:25:05.745Z,3.80
2018-09-25T22:27:40.152Z,3.70
2018-09-25T22:30:14.631Z,3.70
2018-09-25T22:32:49.047Z,3.70
2018-09-25T22:35:23.410Z,3.70
2018-09-25T22:37:57.772Z,3.70
2018-09-25T22:40:32.587Z,3.60
2018-09-25T22:43:06.830Z,3.50
2018-09-25T22:45:41.025Z,3.60
2018-09-25T22:48:15.674Z,3.60
2018-09-25T22:50:50.061Z,3.50
2018-09-25T22:53:24.390Z,3.50
2018-09-25T22:55:58.779Z,3.50
2018-09-25T22:58:33.114Z,3.50
2018-09-25T23:01:07.449Z,3.50
2018-09-25T23:03:41.695Z,3.60
2018-09-25T23:06:16.083Z,3.60
2018-09-25T23:08:50.300Z,3.60
2018-09-25T23:11:24.715Z,3.60
2018-09-25T23:13:59.073Z,3.60
2018-09-25T23:16:33.551Z,3.70
2018-09-25T23:19:07.854Z,3.60
2018-09-25T23:21:42.311Z,3.60
2018-09-25T23:24:16.582Z,3.50
2018-09-25T23:26:50.966Z,3.60
2018-09-25T23:29:25.315Z,3.60
2018-09-25T23:31:59.760Z,3.50
2018-09-25T23:34:34.167Z,3.60
2018-09-25T23:37:08.510Z,3.70
2018-09-25T23:39:44.694Z,3.60
2018-09-25T23:42:25.055Z,3.60
2018-09-25T23:45:01.368Z,3.50
2018-09-25T23:47:37.707Z,3.60
2018-09-25T23:50:14.290Z,3.60
2018-09-25T23:52:48.606Z,3.70
2018-09-25T23:55:22.460Z,3.50
2018-09-25T23:58:04.750Z,3.30
